createdAt,value
2023-07-20T00:00:41.507Z,5.20
2023-07-20T00:03:30.119Z,5.70
2023-07-20T00:05:58.780Z,5.30
2023-07-20T00:08:27.327Z,5.40
2023-07-20T00:10:55.864Z,4.40
2023-07-20T00:13:24.397Z,4.90
2023-07-20T00:15:53.728Z,5.50
2023-07-20T00:18:22.650Z,5.70
2023-07-20T00:20:52.278Z,5.40
2023-07-20T00:23:24.279Z,5.40
2023-07-20T00:25:52.691Z,5.80
2023-07-20T00:28:21.890Z,6.00
2023-07-20T00:30:50.257Z,5.50
2023-07-20T00:33:19.579Z,5.90
2023-07-20T00:35:47.993Z,5.70
2023-07-20T00:38:16.287Z,6.80
2023-07-20T00:40:44.496Z,6.50
2023-07-20T00:43:13.244Z,6.20
2023-07-20T00:45:41.525Z,6.00
2023-07-20T00:48:10.285Z,6.10
2023-07-20T00:50:41.129Z,6.90
2023-07-20T00:53:10.304Z,6.40
2023-07-20T00:55:38.962Z,6.00
2023-07-20T00:58:08.472Z,5.70
2023-07-20T01:00:36.780Z,5.90
2023-07-20T01:03:05.279Z,6.20
2023-07-20T01:05:43.652Z,6.00
2023-07-20T01:08:22.451Z,6.00
2023-07-20T01:11:04.540Z,6.10
2023-07-20T01:13:33.754Z,5.80
2023-07-20T01:16:03.299Z,6.40
2023-07-20T01:18:34.525Z,5.70
2023-07-20T01:21:09.077Z,5.80
2023-07-20T01:24:08.477Z,5.90
2023-07-20T01:27:05.318Z,6.20
2023-07-20T01:30:01.527Z,6.90
2023-07-20T01:32:32.494Z,6.50
2023-07-20T01:35:03.424Z,6.60
2023-07-20T01:37:34.197Z,7.10
2023-07-20T01:40:02.938Z,7.20
2023-07-20T01:42:31.820Z,6.20
2023-07-20T01:45:00.205Z,6.40
2023-07-20T01:47:28.501Z,7.30
2023-07-20T01:49:56.603Z,7.50
2023-07-20T01:52:24.903Z,7.00
2023-07-20T01:54:53.186Z,6.60
2023-07-20T01:57:21.869Z,6.80
2023-07-20T01:59:50.243Z,6.90
2023-07-20T02:02:22.025Z,7.70
2023-07-20T02:04:50.701Z,6.40
2023-07-20T02:07:19.476Z,7.10
2023-07-20T02:09:47.807Z,7.10
2023-07-20T02:12:16.163Z,7.30
2023-07-20T02:14:44.668Z,7.80
2023-07-20T02:17:13.212Z,7.20
2023-07-20T02:19:42.710Z,7.20
2023-07-20T02:22:11.520Z,7.00
2023-07-20T02:24:39.803Z,7.70
2023-07-20T02:27:08.684Z,7.50
2023-07-20T02:29:37.443Z,6.70
2023-07-20T02:32:06.166Z,6.60
2023-07-20T02:34:34.773Z,6.10
2023-07-20T02:37:03.434Z,6.50
2023-07-20T02:39:31.995Z,6.70
2023-07-20T02:42:00.443Z,6.30
2023-07-20T02:44:29.305Z,5.60
2023-07-20T02:46:57.774Z,5.90
2023-07-20T02:49:26.517Z,6.10
2023-07-20T02:51:55.798Z,6.40
2023-07-20T02:54:24.062Z,6.00
2023-07-20T02:56:52.428Z,5.60
2023-07-20T02:59:20.827Z,5.50
2023-07-20T03:01:49.112Z,6.10
2023-07-20T03:04:17.733Z,6.20
2023-07-20T03:06:46.031Z,6.00
2023-07-20T03:09:14.310Z,6.10
2023-07-20T03:11:42.663Z,6.40
2023-07-20T03:14:12.080Z,5.90
2023-07-20T03:16:40.420Z,6.00
2023-07-20T03:19:08.888Z,5.80
2023-07-20T03:21:42.327Z,5.70
2023-07-20T03:24:10.642Z,5.50
2023-07-20T03:26:39.117Z,5.80
2023-07-20T03:29:08.180Z,5.60
2023-07-20T03:31:36.549Z,4.80
2023-07-20T03:34:05.098Z,5.60
2023-07-20T03:36:33.410Z,5.30
2023-07-20T03:39:01.693Z,5.20
2023-07-20T03:41:30.045Z,5.60
2023-07-20T03:43:58.387Z,5.00
2023-07-20T03:46:27.164Z,4.60
2023-07-20T03:48:55.637Z,4.90
2023-07-20T03:51:23.923Z,4.90
2023-07-20T03:53:52.270Z,5.30
2023-07-20T03:56:20.622Z,4.60
2023-07-20T03:58:49.591Z,4.30
2023-07-20T04:01:21.305Z,4.30
2023-07-20T04:03:50.207Z,4.50
2023-07-20T04:06:19.109Z,4.80
2023-07-20T04:08:48.612Z,4.90
2023-07-20T04:11:17.009Z,4.00
2023-07-20T04:13:45.113Z,4.20
2023-07-20T04:16:13.435Z,4.40
2023-07-20T04:18:41.884Z,4.40
2023-07-20T04:21:11.329Z,4.40
2023-07-20T04:23:39.723Z,3.80
2023-07-20T04:26:08.208Z,3.70
2023-07-20T04:28:36.487Z,3.70
2023-07-20T04:31:15.276Z,4.20
2023-07-20T04:33:43.966Z,3.60
2023-07-20T04:36:12.444Z,3.70
2023-07-20T04:38:43.748Z,3.80
2023-07-20T04:41:13.717Z,4.20
2023-07-20T04:43:45.645Z,3.80
2023-07-20T04:46:14.346Z,3.40
2023-07-20T04:48:42.966Z,2.80
2023-07-20T04:51:11.760Z,3.00
2023-07-20T04:53:40.270Z,3.60
2023-07-20T04:56:09.798Z,3.60
2023-07-20T04:58:38.268Z,3.70
2023-07-20T05:01:06.710Z,4.30
2023-07-20T05:03:35.445Z,4.20
2023-07-20T05:06:04.327Z,4.00
2023-07-20T05:08:32.635Z,3.50
2023-07-20T05:11:03.853Z,4.20
2023-07-20T05:13:32.103Z,3.80
2023-07-20T05:16:00.349Z,4.10
2023-07-20T05:18:28.844Z,3.80
2023-07-20T05:20:57.358Z,3.50
2023-07-20T05:23:25.560Z,4.20
2023-07-20T05:25:58.030Z,3.40
2023-07-20T05:28:30.648Z,3.30
2023-07-20T05:31:04.218Z,3.40
2023-07-20T05:33:32.508Z,3.60
2023-07-20T05:36:00.929Z,2.90
2023-07-20T05:38:29.261Z,3.20
2023-07-20T05:41:02.506Z,3.00
2023-07-20T05:43:31.585Z,2.90
2023-07-20T05:46:00.157Z,2.90
2023-07-20T05:48:28.677Z,3.10
2023-07-20T05:50:57.529Z,3.50
2023-07-20T05:53:25.891Z,3.10
2023-07-20T05:55:56.959Z,3.50
2023-07-20T05:58:25.848Z,3.20
2023-07-20T06:00:55.018Z,3.10
2023-07-20T06:03:23.763Z,3.30
2023-07-20T06:05:55.186Z,3.10
2023-07-20T06:08:23.643Z,4.00
2023-07-20T06:10:55.430Z,3.50
2023-07-20T06:13:24.057Z,3.50
2023-07-20T06:15:52.427Z,4.40
2023-07-20T06:18:22.295Z,4.30
2023-07-20T06:20:54.435Z,3.70
2023-07-20T06:23:23.018Z,4.10
2023-07-20T06:25:51.497Z,3.60
2023-07-20T06:28:19.764Z,4.00
2023-07-20T06:30:48.412Z,4.00
2023-07-20T06:33:16.758Z,3.50
2023-07-20T06:35:45.160Z,3.50
2023-07-20T06:40:45.060Z,3.50
2023-07-20T06:45:45.408Z,4.00
2023-07-20T06:48:13.736Z,3.50
2023-07-20T06:50:42.253Z,3.40
2023-07-20T06:53:10.817Z,3.30
2023-07-20T06:55:41.386Z,2.90
2023-07-20T06:58:13.978Z,2.50
2023-07-20T07:00:42.442Z,2.10
2023-07-20T07:03:10.918Z,2.40
2023-07-20T07:05:42.383Z,2.50
2023-07-20T07:08:10.785Z,2.60
2023-07-20T07:10:39.125Z,2.60
2023-07-20T07:13:07.254Z,2.80
2023-07-20T07:15:39.284Z,2.80
2023-07-20T07:18:07.891Z,2.80
2023-07-20T07:20:41.216Z,2.40
2023-07-20T07:23:09.585Z,2.40
2023-07-20T07:25:38.032Z,2.30
2023-07-20T07:28:06.340Z,2.60
2023-07-20T07:30:35.099Z,2.40
2023-07-20T07:33:03.641Z,2.20
2023-07-20T07:35:31.859Z,2.50
2023-07-20T07:38:12.284Z,2.70
2023-07-20T07:40:48.511Z,2.90
2023-07-20T07:43:17.155Z,2.90
2023-07-20T07:45:45.357Z,2.60
2023-07-20T07:48:15.460Z,2.60
2023-07-20T07:50:44.198Z,2.40
2023-07-20T07:53:12.638Z,3.10
2023-07-20T07:55:43.401Z,3.20
2023-07-20T07:58:11.956Z,3.80
2023-07-20T08:00:40.949Z,3.00
2023-07-20T08:03:10.106Z,2.90
2023-07-20T08:05:38.993Z,2.70
2023-07-20T08:08:07.456Z,2.10
2023-07-20T08:10:35.865Z,2.10
2023-07-20T08:13:04.234Z,2.40
2023-07-20T08:15:32.644Z,2.60
2023-07-20T08:18:01.294Z,3.10
2023-07-20T08:20:29.902Z,2.70
2023-07-20T08:22:59.561Z,2.50
2023-07-20T08:25:27.971Z,2.40
2023-07-20T08:27:56.266Z,1.90
2023-07-20T08:30:25.046Z,1.70
2023-07-20T08:32:53.370Z,2.00
2023-07-20T08:35:23.070Z,2.10
2023-07-20T08:37:51.595Z,1.80
2023-07-20T08:40:20.055Z,1.80
2023-07-20T08:42:49.158Z,2.00
2023-07-20T08:45:18.768Z,1.70
2023-07-20T08:47:50.655Z,1.80
2023-07-20T08:50:20.251Z,1.50
2023-07-20T08:52:49.788Z,1.70
2023-07-20T08:55:18.596Z,1.50
2023-07-20T08:57:51.109Z,1.30
2023-07-20T09:00:20.991Z,1.10
2023-07-20T09:02:52.919Z,1.40
2023-07-20T09:05:24.498Z,1.70
2023-07-20T09:07:54.538Z,2.00
2023-07-20T09:10:24.220Z,1.60
2023-07-20T09:12:54.269Z,1.60
2023-07-20T09:15:26.990Z,1.80
2023-07-20T09:17:55.495Z,1.40
2023-07-20T09:20:24.027Z,1.20
2023-07-20T09:22:54.348Z,1.30
2023-07-20T09:25:25.358Z,1.90
2023-07-20T09:27:56.988Z,1.40
2023-07-20T09:33:03.098Z,1.20
2023-07-20T09:35:41.651Z,1.00
2023-07-20T09:50:58.103Z,1.50
2023-07-20T09:53:30.459Z,1.10
2023-07-20T09:56:00.850Z,1.50
2023-07-20T09:58:30.297Z,1.40
2023-07-20T10:01:08.291Z,1.20
2023-07-20T10:03:38.757Z,1.30
2023-07-20T10:06:11.899Z,1.10
2023-07-20T10:11:17.070Z,1.10
2023-07-20T10:13:46.764Z,1.10
2023-07-20T10:16:31.046Z,1.20
2023-07-20T10:19:19.181Z,1.10
2023-07-20T10:21:56.604Z,1.20
2023-07-20T10:24:29.825Z,1.70
2023-07-20T10:26:59.574Z,1.20
2023-07-20T10:29:30.546Z,1.30
2023-07-20T10:31:59.480Z,1.60
2023-07-20T10:34:27.913Z,1.20
2023-07-20T10:36:56.411Z,1.20
2023-07-20T10:39:35.028Z,1.10
2023-07-20T10:42:11.163Z,1.40
2023-07-20T10:44:41.160Z,1.00
2023-07-20T10:47:14.399Z,1.50
2023-07-20T10:50:15.390Z,1.20
2023-07-20T10:52:44.064Z,1.20
2023-07-20T10:55:16.431Z,1.10
2023-07-20T10:57:46.062Z,1.20
2023-07-20T11:00:16.274Z,1.40
2023-07-20T11:02:45.667Z,1.20
2023-07-20T11:05:33.863Z,1.10
2023-07-20T11:08:06.156Z,1.10
2023-07-20T11:10:35.397Z,1.20
2023-07-20T11:13:24.902Z,1.10
2023-07-20T11:15:58.025Z,1.30
2023-07-20T11:18:29.727Z,1.10
2023-07-20T11:20:58.621Z,1.30
2023-07-20T11:23:27.895Z,1.30
2023-07-20T11:25:56.368Z,1.80
2023-07-20T11:28:24.955Z,1.20
2023-07-20T11:30:56.423Z,1.10
2023-07-20T11:33:25.114Z,1.20
2023-07-20T11:35:54.371Z,1.30
2023-07-20T11:38:22.756Z,1.40
2023-07-20T11:40:51.765Z,1.40
2023-07-20T11:43:22.488Z,1.30
2023-07-20T11:45:50.970Z,1.50
2023-07-20T11:48:19.504Z,1.40
2023-07-20T11:50:48.373Z,1.90
2023-07-20T11:53:17.714Z,1.40
2023-07-20T11:55:47.289Z,1.40
2023-07-20T11:58:18.290Z,1.40
2023-07-20T12:00:47.521Z,1.60
2023-07-20T12:03:16.368Z,1.60
2023-07-20T12:06:00.460Z,1.40
2023-07-20T12:08:30.547Z,1.50
2023-07-20T12:10:59.128Z,1.40
2023-07-20T12:14:11.555Z,1.90
2023-07-20T12:16:40.576Z,1.70
2023-07-20T12:19:11.010Z,1.60
2023-07-20T12:21:42.502Z,1.60
2023-07-20T12:24:12.764Z,1.80
2023-07-20T12:26:41.546Z,1.50
2023-07-20T12:29:10.036Z,1.40
2023-07-20T12:31:41.751Z,1.20
2023-07-20T12:34:10.807Z,1.40
2023-07-20T12:36:39.225Z,1.30
2023-07-20T12:39:07.651Z,1.30
2023-07-20T12:41:35.771Z,1.30
2023-07-20T12:44:04.177Z,1.60
2023-07-20T12:46:36.598Z,1.60
2023-07-20T12:49:05.548Z,1.60
2023-07-20T12:51:33.886Z,1.60
2023-07-20T12:54:02.369Z,1.40
2023-07-20T12:59:04.127Z,1.40
2023-07-20T13:01:34.817Z,1.40
2023-07-20T13:06:37.499Z,1.20
2023-07-20T13:09:06.314Z,1.70
2023-07-20T13:11:34.900Z,1.50
2023-07-20T13:14:03.433Z,1.40
2023-07-20T13:16:31.864Z,1.50
2023-07-20T13:19:02.037Z,1.30
2023-07-20T13:21:30.592Z,1.60
2023-07-20T13:23:59.058Z,1.10
2023-07-20T13:26:27.546Z,1.00
2023-07-20T13:28:56.363Z,1.20
2023-07-20T13:31:25.081Z,1.00
2023-07-20T13:33:57.685Z,1.00
2023-07-20T13:36:30.516Z,0.80
2023-07-20T13:39:00.665Z,0.90
2023-07-20T13:41:30.101Z,1.00
2023-07-20T13:44:02.332Z,1.00
2023-07-20T13:49:01.747Z,0.90
2023-07-20T13:51:30.382Z,0.90
2023-07-20T13:53:59.458Z,0.80
2023-07-20T13:56:28.754Z,0.60
2023-07-20T13:58:59.348Z,0.70
2023-07-20T14:01:30.252Z,0.60
2023-07-20T14:03:59.393Z,0.90
2023-07-20T14:06:34.596Z,0.60
2023-07-20T14:09:04.926Z,0.80
2023-07-20T14:14:04.682Z,0.50
2023-07-20T14:16:33.986Z,0.60
2023-07-20T14:19:04.331Z,0.50
2023-07-20T14:21:32.792Z,0.70
2023-07-20T14:24:02.255Z,0.70
2023-07-20T14:26:33.661Z,0.50
2023-07-20T14:29:02.974Z,0.60
2023-07-20T14:31:32.972Z,0.70
2023-07-20T14:34:01.940Z,0.60
2023-07-20T14:36:31.483Z,0.70
2023-07-20T14:39:00.603Z,0.70
2023-07-20T14:41:29.122Z,0.60
2023-07-20T14:43:58.471Z,0.50
2023-07-20T14:46:27.159Z,0.50
2023-07-20T14:48:55.712Z,0.50
2023-07-20T14:51:24.056Z,0.50
2023-07-20T14:53:58.156Z,0.40
2023-07-20T14:56:28.297Z,0.40
2023-07-20T14:58:59.361Z,0.50
2023-07-20T15:01:28.993Z,0.70
2023-07-20T15:03:59.685Z,0.60
2023-07-20T15:06:31.693Z,0.50
2023-07-20T15:09:02.368Z,0.60
2023-07-20T15:11:31.423Z,0.70
2023-07-20T15:13:59.945Z,0.50
2023-07-20T15:16:28.813Z,0.60
2023-07-20T15:18:57.511Z,0.60
2023-07-20T15:21:27.227Z,0.40
2023-07-20T15:23:56.121Z,0.40
2023-07-20T15:26:25.023Z,0.50
2023-07-20T15:28:53.450Z,0.50
2023-07-20T15:32:00.265Z,0.50
2023-07-20T15:34:14.822Z,1.40
2023-07-20T15:36:46.581Z,0.50
2023-07-20T15:39:15.345Z,0.60
2023-07-20T15:41:44.001Z,0.70
2023-07-20T15:44:13.709Z,0.70
2023-07-20T15:46:46.416Z,0.70
2023-07-20T15:49:15.655Z,0.60
2023-07-20T15:51:44.664Z,0.70
2023-07-20T15:54:14.407Z,0.70
2023-07-20T15:56:44.136Z,0.70
2023-07-20T15:59:14.649Z,1.10
2023-07-20T16:01:44.427Z,0.70
2023-07-20T16:04:17.100Z,1.00
2023-07-20T16:06:45.707Z,0.70
2023-07-20T16:09:15.900Z,0.90
2023-07-20T16:11:45.778Z,0.90
2023-07-20T16:14:16.502Z,0.60
2023-07-20T16:16:45.459Z,0.60
2023-07-20T16:19:19.368Z,0.70
2023-07-20T16:21:48.025Z,0.70
2023-07-20T16:24:18.469Z,0.60
2023-07-20T16:26:50.278Z,0.70
2023-07-20T16:29:23.468Z,0.80
2023-07-20T16:34:24.709Z,1.00
2023-07-20T16:39:27.992Z,0.70
2023-07-20T16:44:28.186Z,0.60
2023-07-20T16:46:57.178Z,0.70
2023-07-20T16:49:28.311Z,0.70
2023-07-20T16:52:00.082Z,0.70
2023-07-20T16:54:28.616Z,1.10
2023-07-20T16:56:57.231Z,0.80
2023-07-20T16:59:28.973Z,0.70
2023-07-20T17:01:57.912Z,0.70
2023-07-20T17:04:33.590Z,0.80
2023-07-20T17:07:02.487Z,0.70
2023-07-20T17:09:44.366Z,0.80
2023-07-20T17:12:13.200Z,0.90
2023-07-20T17:14:41.960Z,0.70
2023-07-20T17:17:10.760Z,0.90
2023-07-20T17:19:39.368Z,0.70
2023-07-20T17:22:11.331Z,0.70
2023-07-20T17:27:20.136Z,1.00
2023-07-20T17:29:52.124Z,0.90
2023-07-20T17:32:20.872Z,0.90
2023-07-20T17:34:53.822Z,0.70
2023-07-20T17:37:22.443Z,0.80
2023-07-20T17:44:58.373Z,0.70
2023-07-20T17:47:27.484Z,0.80
2023-07-20T17:50:09.353Z,0.90
2023-07-20T17:52:38.474Z,0.80
2023-07-20T17:55:07.836Z,0.80
2023-07-20T17:57:36.570Z,1.00
2023-07-20T18:02:54.200Z,0.90
2023-07-20T18:05:23.074Z,0.90
2023-07-20T18:07:51.830Z,0.70
2023-07-20T18:10:20.508Z,0.80
2023-07-20T18:12:49.164Z,0.90
2023-07-20T18:15:18.116Z,1.00
2023-07-20T18:17:46.979Z,0.90
2023-07-20T18:20:15.665Z,1.40
2023-07-20T18:22:44.005Z,1.40
2023-07-20T18:25:12.460Z,1.00
2023-07-20T18:27:41.888Z,0.90
2023-07-20T18:30:10.463Z,1.00
2023-07-20T18:32:38.680Z,0.90
2023-07-20T18:35:10.922Z,1.30
2023-07-20T18:37:40.130Z,1.10
2023-07-20T18:40:09.618Z,1.10
2023-07-20T18:42:38.521Z,1.20
2023-07-20T18:45:09.136Z,1.10
2023-07-20T18:47:38.040Z,1.10
2023-07-20T18:50:07.345Z,1.20
2023-07-20T18:52:36.337Z,1.20
2023-07-20T18:55:04.978Z,1.10
2023-07-20T18:57:36.947Z,1.20
2023-07-20T19:00:08.400Z,1.20
2023-07-20T19:02:37.411Z,1.50
2023-07-20T19:05:07.031Z,1.20
2023-07-20T19:07:37.687Z,1.90
2023-07-20T19:10:07.599Z,2.00
2023-07-20T19:12:36.081Z,2.10
2023-07-20T19:15:05.073Z,1.60
2023-07-20T19:17:33.932Z,1.80
2023-07-20T19:20:03.253Z,2.00
2023-07-20T19:22:35.664Z,1.80
2023-07-20T19:25:07.186Z,1.50
2023-07-20T19:27:35.901Z,1.30
2023-07-20T19:30:07.683Z,1.60
2023-07-20T19:32:36.872Z,1.70
2023-07-20T19:35:06.644Z,1.50
2023-07-20T19:37:37.939Z,1.40
2023-07-20T19:40:12.487Z,1.40
2023-07-20T19:42:41.099Z,1.60
2023-07-20T19:45:10.120Z,1.40
2023-07-20T19:47:39.185Z,1.60
2023-07-20T19:50:08.713Z,2.00
2023-07-20T19:52:37.195Z,1.60
2023-07-20T19:55:07.099Z,1.90
2023-07-20T19:57:40.657Z,1.50
2023-07-20T20:00:13.152Z,1.80
2023-07-20T20:05:16.653Z,1.60
2023-07-20T20:07:46.671Z,1.50
2023-07-20T20:10:15.644Z,1.30
2023-07-20T20:12:44.742Z,1.80
2023-07-20T20:15:13.498Z,1.70
2023-07-20T20:17:43.628Z,1.90
2023-07-20T20:20:13.065Z,1.50
2023-07-20T20:22:41.765Z,1.80
2023-07-20T20:25:10.679Z,1.70
2023-07-20T20:27:40.801Z,1.90
2023-07-20T20:30:10.479Z,2.10
2023-07-20T20:32:43.382Z,2.30
2023-07-20T20:35:12.558Z,2.30
2023-07-20T20:37:41.300Z,2.90
2023-07-20T20:40:10.209Z,2.60
2023-07-20T20:42:38.861Z,2.60
2023-07-20T20:45:10.678Z,3.10
2023-07-20T20:47:42.343Z,3.30
2023-07-20T20:50:12.005Z,3.30
2023-07-20T20:52:40.600Z,3.20
2023-07-20T20:55:10.419Z,2.80
2023-07-20T20:57:38.788Z,2.60
2023-07-20T21:00:08.546Z,2.80
2023-07-20T21:02:37.100Z,2.60
2023-07-20T21:05:07.362Z,2.80
2023-07-20T21:07:35.745Z,3.00
2023-07-20T21:10:04.312Z,3.90
2023-07-20T21:12:33.266Z,3.20
2023-07-20T21:15:07.175Z,3.40
2023-07-20T21:17:36.490Z,3.50
2023-07-20T21:20:07.546Z,3.40
2023-07-20T21:22:38.250Z,3.40
2023-07-20T21:25:07.347Z,3.30
2023-07-20T21:27:35.747Z,3.30
2023-07-20T21:30:04.397Z,3.70
2023-07-20T21:32:35.253Z,3.80
2023-07-20T21:35:03.706Z,3.60
2023-07-20T21:37:32.626Z,3.40
2023-07-20T21:40:01.046Z,3.50
2023-07-20T21:42:30.841Z,3.50
2023-07-20T21:44:59.502Z,3.90
2023-07-20T21:47:28.374Z,4.60
2023-07-20T21:49:58.599Z,4.00
2023-07-20T21:52:27.386Z,3.50
2023-07-20T21:54:55.882Z,3.60
2023-07-20T21:57:24.665Z,3.60
2023-07-20T21:59:53.171Z,3.50
2023-07-20T22:02:21.738Z,3.10
2023-07-20T22:04:50.449Z,3.40
2023-07-20T22:07:21.664Z,3.30
2023-07-20T22:09:50.017Z,3.00
2023-07-20T22:12:18.853Z,2.80
2023-07-20T22:14:47.434Z,3.20
2023-07-20T22:17:16.110Z,3.10
2023-07-20T22:19:45.307Z,3.60
2023-07-20T22:22:14.463Z,3.60
2023-07-20T22:24:43.556Z,3.70
2023-07-20T22:27:12.107Z,2.90
2023-07-20T22:29:40.645Z,3.70
2023-07-20T22:32:10.662Z,3.40
2023-07-20T22:34:39.889Z,3.70
2023-07-20T22:37:08.340Z,3.50
2023-07-20T22:39:36.705Z,3.40
2023-07-20T22:42:05.225Z,3.90
2023-07-20T22:44:34.092Z,4.00
2023-07-20T22:47:05.020Z,3.90
2023-07-20T22:49:35.150Z,4.10
2023-07-20T22:52:03.858Z,3.90
2023-07-20T22:54:33.198Z,3.80
2023-07-20T22:57:01.613Z,4.20
2023-07-20T22:59:30.124Z,3.80
2023-07-20T23:01:59.484Z,3.90
2023-07-20T23:04:28.140Z,3.50
2023-07-20T23:06:57.154Z,4.10
2023-07-20T23:09:25.590Z,3.90
2023-07-20T23:11:54.378Z,3.90
2023-07-20T23:14:23.187Z,3.70
2023-07-20T23:16:52.909Z,4.10
2023-07-20T23:19:22.489Z,3.90
2023-07-20T23:21:50.734Z,3.60
2023-07-20T23:24:19.213Z,3.50
2023-07-20T23:26:47.690Z,3.40
2023-07-20T23:29:16.499Z,4.00
2023-07-20T23:31:45.211Z,4.20
2023-07-20T23:34:13.625Z,3.90
2023-07-20T23:36:41.933Z,4.30
2023-07-20T23:39:10.557Z,3.60
2023-07-20T23:41:39.084Z,4.10
2023-07-20T23:44:07.844Z,3.90
2023-07-20T23:46:36.148Z,3.70
2023-07-20T23:49:05.688Z,3.80
2023-07-20T23:51:33.872Z,3.90
2023-07-20T23:54:02.518Z,3.70
2023-07-20T23:56:30.827Z,4.00
2023-07-20T23:58:59.108Z,3.70
